HVN1201 RPLL-WSSS
Flight info
| Callsign | HVN1201 |
|---|---|
| Flight time | N/A |
| Altitude | 38000 |
| Route | BUCAL M646 TOKON M767 TOMAN |
| Aircraft | A339/H-V/N |
Departure
| Time | 2026-05-05 05:08 |
|---|---|
| Airport | Ninoy Aquino International Airport (RPLL) |
Arrival
| Time | N/A |
|---|---|
| Airport | Singapore Changi Airport (WSSS) |
| Time | Latitude | Longitude | Altitude | Speed | Heading |
|---|---|---|---|---|---|
| 2026-05-05 04:46 | 14.50517 | 121.00720 | 91 ft | 0 kts | 277° |
| 2026-05-05 04:58 | 14.50516 | 121.00722 | 91 ft | 1 kts | 277° |
| 2026-05-05 04:58 | 14.50515 | 121.00737 | 91 ft | 2 kts | 277° |
| 2026-05-05 04:59 | 14.50513 | 121.00752 | 91 ft | 2 kts | 277° |
| 2026-05-05 04:59 | 14.50511 | 121.00768 | 91 ft | 2 kts | 277° |
| 2026-05-05 04:59 | 14.50509 | 121.00781 | 91 ft | 2 kts | 288° |
| 2026-05-05 04:59 | 14.50503 | 121.00794 | 91 ft | 2 kts | 298° |
| 2026-05-05 05:00 | 14.50495 | 121.00807 | 91 ft | 2 kts | 308° |
| 2026-05-05 05:00 | 14.50485 | 121.00819 | 91 ft | 2 kts | 319° |
| 2026-05-05 05:00 | 14.50473 | 121.00828 | 91 ft | 2 kts | 329° |
| 2026-05-05 05:00 | 14.50460 | 121.00835 | 91 ft | 2 kts | 339° |
| 2026-05-05 05:01 | 14.50446 | 121.00841 | 91 ft | 2 kts | 324° |
| 2026-05-05 05:01 | 14.50435 | 121.00851 | 91 ft | 2 kts | 301° |
| 2026-05-05 05:01 | 14.50429 | 121.00866 | 91 ft | 2 kts | 281° |
| 2026-05-05 05:01 | 14.50429 | 121.00881 | 91 ft | 2 kts | 259° |
| 2026-05-05 05:02 | 14.50433 | 121.00896 | 91 ft | 2 kts | 239° |
| 2026-05-05 05:02 | 14.50441 | 121.00909 | 91 ft | 2 kts | 238° |
| 2026-05-05 05:02 | 14.50445 | 121.00914 | 91 ft | 0 kts | 240° |
| 2026-05-05 05:04 | 14.50441 | 121.00907 | 91 ft | 2 kts | 240° |
| 2026-05-05 05:04 | 14.50423 | 121.00877 | 91 ft | 7 kts | 240° |
| 2026-05-05 05:04 | 14.50390 | 121.00818 | 91 ft | 11 kts | 239° |
| 2026-05-05 05:04 | 14.50344 | 121.00734 | 91 ft | 15 kts | 240° |
| 2026-05-05 05:05 | 14.50287 | 121.00630 | 91 ft | 18 kts | 240° |
| 2026-05-05 05:05 | 14.50219 | 121.00511 | 91 ft | 20 kts | 239° |
| 2026-05-05 05:05 | 14.50145 | 121.00377 | 91 ft | 22 kts | 240° |
| 2026-05-05 05:05 | 14.50064 | 121.00230 | 91 ft | 23 kts | 241° |
| 2026-05-05 05:06 | 14.49985 | 121.00085 | 91 ft | 22 kts | 240° |
| 2026-05-05 05:06 | 14.49925 | 120.99983 | 91 ft | 12 kts | 234° |
| 2026-05-05 05:06 | 14.49864 | 120.99974 | 91 ft | 9 kts | 153° |
| 2026-05-05 05:06 | 14.49804 | 121.00016 | 91 ft | 10 kts | 129° |
| 2026-05-05 05:07 | 14.49810 | 121.00062 | 91 ft | 7 kts | 56° |
| 2026-05-05 05:07 | 14.49830 | 121.00095 | 91 ft | 0 kts | 60° |
| 2026-05-05 05:07 | 14.49836 | 121.00105 | 91 ft | 4 kts | 60° |
| 2026-05-05 05:07 | 14.49959 | 121.00333 | 91 ft | 67 kts | 62° |
| 2026-05-05 05:08 | 14.50285 | 121.00925 | 91 ft | 121 kts | 61° |
| 2026-05-05 05:08 | 14.50794 | 121.01818 | 92 ft | 165 kts | 59° |
| 2026-05-05 05:08 | 14.51429 | 121.02895 | 357 ft | 180 kts | 59° |
| 2026-05-05 05:08 | 14.52051 | 121.04009 | 934 ft | 177 kts | 62° |
| 2026-05-05 05:09 | 14.52642 | 121.05111 | 1495 ft | 178 kts | 63° |
| 2026-05-05 05:09 | 14.53270 | 121.06273 | 1818 ft | 194 kts | 63° |
| 2026-05-05 05:09 | 14.53953 | 121.07526 | 2061 ft | 206 kts | 62° |
| 2026-05-05 05:09 | 14.54680 | 121.08850 | 2296 ft | 219 kts | 62° |
| 2026-05-05 05:10 | 14.55455 | 121.10249 | 2533 ft | 232 kts | 62° |
| 2026-05-05 05:10 | 14.56202 | 121.11800 | 2808 ft | 244 kts | 76° |
| 2026-05-05 05:10 | 14.56257 | 121.13570 | 3125 ft | 256 kts | 102° |
| 2026-05-05 05:10 | 14.55487 | 121.15231 | 3652 ft | 262 kts | 128° |
| 2026-05-05 05:11 | 14.54042 | 121.16393 | 4221 ft | 268 kts | 154° |
| 2026-05-05 05:11 | 14.52181 | 121.16752 | 4787 ft | 276 kts | 182° |
| 2026-05-05 05:11 | 14.50316 | 121.16199 | 5370 ft | 282 kts | 201° |
| 2026-05-05 05:11 | 14.48505 | 121.15368 | 5977 ft | 284 kts | 202° |
| 2026-05-05 05:12 | 14.46697 | 121.14537 | 6576 ft | 286 kts | 201° |
| 2026-05-05 05:12 | 14.44832 | 121.13686 | 7169 ft | 288 kts | 201° |
| 2026-05-05 05:12 | 14.42982 | 121.12849 | 7760 ft | 291 kts | 201° |
| 2026-05-05 05:12 | 14.41094 | 121.12001 | 8366 ft | 293 kts | 201° |
| 2026-05-05 05:13 | 14.39215 | 121.11158 | 8964 ft | 295 kts | 201° |
| 2026-05-05 05:13 | 14.37329 | 121.10314 | 9549 ft | 297 kts | 201° |
| 2026-05-05 05:13 | 14.35400 | 121.09450 | 10110 ft | 300 kts | 201° |
| 2026-05-05 05:13 | 14.33449 | 121.08580 | 10431 ft | 312 kts | 201° |
| 2026-05-05 05:14 | 14.31398 | 121.07664 | 10682 ft | 327 kts | 201° |
| 2026-05-05 05:14 | 14.29238 | 121.06648 | 10928 ft | 342 kts | 205° |
| 2026-05-05 05:14 | 14.27099 | 121.05441 | 11153 ft | 357 kts | 210° |
| 2026-05-05 05:14 | 14.24983 | 121.04022 | 11435 ft | 369 kts | 213° |
| 2026-05-05 05:15 | 14.22846 | 121.02515 | 11894 ft | 374 kts | 213° |
| 2026-05-05 05:15 | 14.20685 | 121.00980 | 12433 ft | 376 kts | 213° |
| 2026-05-05 05:15 | 14.18524 | 120.99448 | 12941 ft | 379 kts | 213° |
| 2026-05-05 05:15 | 14.16309 | 120.97881 | 13447 ft | 382 kts | 213° |
| 2026-05-05 05:16 | 14.14095 | 120.96317 | 13961 ft | 385 kts | 213° |
| 2026-05-05 05:16 | 14.11897 | 120.94764 | 14446 ft | 387 kts | 213° |
| 2026-05-05 05:16 | 14.09648 | 120.93176 | 14952 ft | 390 kts | 213° |
| 2026-05-05 05:16 | 14.07413 | 120.91602 | 15475 ft | 392 kts | 213° |
| 2026-05-05 05:17 | 14.05120 | 120.89987 | 15985 ft | 395 kts | 213° |
| 2026-05-05 05:17 | 14.02849 | 120.88387 | 16492 ft | 397 kts | 213° |
| 2026-05-05 05:17 | 14.00564 | 120.86780 | 16974 ft | 400 kts | 213° |
| 2026-05-05 05:17 | 13.98238 | 120.85143 | 17477 ft | 403 kts | 213° |
| 2026-05-05 05:18 | 13.95915 | 120.83511 | 17957 ft | 405 kts | 213° |
| 2026-05-05 05:18 | 13.93568 | 120.81862 | 18443 ft | 408 kts | 213° |
| 2026-05-05 05:18 | 13.91225 | 120.80212 | 18923 ft | 410 kts | 213° |
| 2026-05-05 05:18 | 13.88874 | 120.78560 | 19387 ft | 413 kts | 213° |
| 2026-05-05 05:19 | 13.86455 | 120.76861 | 19844 ft | 416 kts | 213° |
| 2026-05-05 05:19 | 13.84056 | 120.75173 | 20278 ft | 419 kts | 213° |
| 2026-05-05 05:19 | 13.81658 | 120.73486 | 20735 ft | 421 kts | 214° |
| 2026-05-05 05:19 | 13.79236 | 120.71783 | 21143 ft | 424 kts | 214° |
| 2026-05-05 05:20 | 13.76794 | 120.70067 | 21562 ft | 426 kts | 214° |
| 2026-05-05 05:20 | 13.74309 | 120.68319 | 21979 ft | 428 kts | 214° |
| 2026-05-05 05:20 | 13.71868 | 120.66603 | 22372 ft | 430 kts | 214° |
| 2026-05-05 05:20 | 13.69384 | 120.64855 | 22768 ft | 433 kts | 214° |
| 2026-05-05 05:21 | 13.66857 | 120.63077 | 23156 ft | 435 kts | 214° |
| 2026-05-05 05:21 | 13.64366 | 120.61327 | 23528 ft | 437 kts | 214° |
| 2026-05-05 05:21 | 13.61829 | 120.59599 | 23887 ft | 439 kts | 211° |
| 2026-05-05 05:21 | 13.59189 | 120.58001 | 24258 ft | 441 kts | 208° |
| 2026-05-05 05:22 | 13.56429 | 120.56538 | 24630 ft | 442 kts | 205° |
| 2026-05-05 05:22 | 13.53637 | 120.55183 | 24989 ft | 444 kts | 205° |
| 2026-05-05 05:22 | 13.50817 | 120.53828 | 25339 ft | 446 kts | 205° |
| 2026-05-05 05:22 | 13.48002 | 120.52476 | 25687 ft | 447 kts | 205° |
| 2026-05-05 05:23 | 13.45163 | 120.51112 | 26020 ft | 449 kts | 205° |
| 2026-05-05 05:23 | 13.42323 | 120.49747 | 26353 ft | 451 kts | 205° |
| 2026-05-05 05:23 | 13.39489 | 120.48383 | 26679 ft | 452 kts | 205° |
| 2026-05-05 05:23 | 13.36617 | 120.47002 | 27003 ft | 454 kts | 205° |
| 2026-05-05 05:24 | 13.33747 | 120.45622 | 27305 ft | 456 kts | 205° |
| 2026-05-05 05:24 | 13.30889 | 120.44249 | 27600 ft | 458 kts | 205° |
| 2026-05-05 05:24 | 13.27978 | 120.42852 | 27888 ft | 460 kts | 205° |
| 2026-05-05 05:24 | 13.25085 | 120.41464 | 28170 ft | 462 kts | 205° |
| 2026-05-05 05:25 | 13.22147 | 120.40054 | 28452 ft | 463 kts | 205° |
| 2026-05-05 05:25 | 13.19239 | 120.38658 | 28735 ft | 465 kts | 205° |
| 2026-05-05 05:25 | 13.16292 | 120.37244 | 29020 ft | 467 kts | 205° |
| 2026-05-05 05:25 | 13.13334 | 120.35825 | 29284 ft | 469 kts | 205° |
| 2026-05-05 05:26 | 13.10362 | 120.34400 | 29532 ft | 471 kts | 204° |
| 2026-05-05 05:26 | 13.07385 | 120.32972 | 29769 ft | 474 kts | 204° |
| 2026-05-05 05:26 | 13.04368 | 120.31525 | 30039 ft | 476 kts | 204° |
| 2026-05-05 05:26 | 13.01396 | 120.30101 | 30397 ft | 475 kts | 204° |
| 2026-05-05 05:27 | 12.98372 | 120.28653 | 30803 ft | 473 kts | 205° |
| 2026-05-05 05:27 | 12.95410 | 120.27234 | 31178 ft | 472 kts | 205° |
| 2026-05-05 05:27 | 12.89431 | 120.24371 | 31858 ft | 471 kts | 205° |
| 2026-05-05 05:28 | 12.86444 | 120.22941 | 32222 ft | 471 kts | 205° |
| 2026-05-05 05:28 | 12.83502 | 120.21531 | 32501 ft | 472 kts | 205° |
| 2026-05-05 05:28 | 12.80493 | 120.20092 | 32773 ft | 473 kts | 205° |
| 2026-05-05 05:28 | 12.77511 | 120.18667 | 33081 ft | 473 kts | 205° |
| 2026-05-05 05:29 | 12.74534 | 120.17244 | 33428 ft | 473 kts | 205° |
| 2026-05-05 05:29 | 12.71537 | 120.15812 | 33748 ft | 474 kts | 205° |
| 2026-05-05 05:29 | 12.65530 | 120.12940 | 33817 ft | 475 kts | 205° |
| 2026-05-05 05:30 | 12.59533 | 120.10075 | 33828 ft | 475 kts | 205° |
| 2026-05-05 05:30 | 12.53509 | 120.07199 | 33826 ft | 475 kts | 205° |
| 2026-05-05 05:31 | 12.47501 | 120.04331 | 33817 ft | 475 kts | 205° |
| 2026-05-05 05:31 | 12.41513 | 120.01476 | 33826 ft | 475 kts | 205° |
| 2026-05-05 05:32 | 12.35478 | 119.98600 | 33831 ft | 474 kts | 205° |
| 2026-05-05 05:32 | 12.29491 | 119.95747 | 33832 ft | 475 kts | 205° |
| 2026-05-05 05:33 | 12.23508 | 119.92899 | 33830 ft | 474 kts | 206° |
| 2026-05-05 05:33 | 12.17499 | 119.90038 | 33834 ft | 475 kts | 206° |
| 2026-05-05 05:34 | 12.11499 | 119.87183 | 33837 ft | 475 kts | 206° |
| 2026-05-05 05:34 | 12.05484 | 119.84322 | 33835 ft | 475 kts | 206° |
| 2026-05-05 05:35 | 11.99489 | 119.81473 | 33840 ft | 475 kts | 206° |
| 2026-05-05 05:35 | 11.93499 | 119.78626 | 33838 ft | 474 kts | 206° |
| 2026-05-05 05:36 | 11.87483 | 119.75770 | 33841 ft | 475 kts | 206° |
| 2026-05-05 05:36 | 11.81497 | 119.72927 | 33840 ft | 475 kts | 206° |
| 2026-05-05 05:37 | 11.75576 | 119.69786 | 33837 ft | 475 kts | 212° |
| 2026-05-05 05:37 | 11.70252 | 119.65831 | 33837 ft | 475 kts | 221° |
| 2026-05-05 05:38 | 11.65567 | 119.61056 | 33835 ft | 474 kts | 230° |
| 2026-05-05 05:38 | 11.61586 | 119.55737 | 33834 ft | 474 kts | 234° |
| 2026-05-05 05:39 | 11.57705 | 119.50281 | 33836 ft | 473 kts | 234° |
| 2026-05-05 05:39 | 11.53846 | 119.44866 | 33832 ft | 473 kts | 234° |
| 2026-05-05 05:40 | 11.49975 | 119.39451 | 33834 ft | 474 kts | 234° |
| 2026-05-05 05:40 | 11.46093 | 119.34026 | 33834 ft | 474 kts | 234° |
| 2026-05-05 05:41 | 11.42200 | 119.28593 | 33830 ft | 474 kts | 234° |
| 2026-05-05 05:41 | 11.38330 | 119.23194 | 33826 ft | 474 kts | 234° |
| 2026-05-05 05:42 | 11.34411 | 119.17730 | 33824 ft | 474 kts | 234° |
| 2026-05-05 05:42 | 11.30513 | 119.12297 | 33823 ft | 474 kts | 234° |
| 2026-05-05 05:43 | 11.26646 | 119.06910 | 33822 ft | 474 kts | 234° |
| 2026-05-05 05:43 | 11.22757 | 119.01491 | 33819 ft | 474 kts | 234° |
| 2026-05-05 05:44 | 11.18850 | 118.96055 | 33822 ft | 475 kts | 234° |
| 2026-05-05 05:44 | 11.14946 | 118.90622 | 33820 ft | 475 kts | 234° |
| 2026-05-05 05:45 | 11.11063 | 118.85226 | 33821 ft | 476 kts | 234° |
| 2026-05-05 05:45 | 11.07132 | 118.79772 | 33821 ft | 475 kts | 234° |
| 2026-05-05 05:46 | 11.03229 | 118.74361 | 33818 ft | 475 kts | 234° |
| 2026-05-05 05:46 | 10.99332 | 118.68951 | 33816 ft | 475 kts | 234° |
| 2026-05-05 05:47 | 10.95414 | 118.63516 | 33817 ft | 476 kts | 234° |
| 2026-05-05 05:47 | 10.91512 | 118.58109 | 33815 ft | 475 kts | 234° |
| 2026-05-05 05:48 | 10.87577 | 118.52657 | 33815 ft | 477 kts | 234° |
| 2026-05-05 05:48 | 10.83665 | 118.47240 | 33816 ft | 477 kts | 234° |
| 2026-05-05 05:49 | 10.79730 | 118.41796 | 33816 ft | 476 kts | 234° |
| 2026-05-05 05:49 | 10.75809 | 118.36370 | 33820 ft | 476 kts | 234° |
| 2026-05-05 05:50 | 10.71881 | 118.30938 | 33830 ft | 477 kts | 234° |
| 2026-05-05 05:50 | 10.67941 | 118.25494 | 33835 ft | 476 kts | 234° |
| 2026-05-05 05:51 | 10.64039 | 118.20104 | 33836 ft | 477 kts | 234° |
| 2026-05-05 05:51 | 10.60084 | 118.14642 | 33835 ft | 478 kts | 234° |
| 2026-05-05 05:52 | 10.56161 | 118.09230 | 33835 ft | 479 kts | 234° |
| 2026-05-05 05:52 | 10.52218 | 118.03792 | 33832 ft | 479 kts | 234° |
| 2026-05-05 05:53 | 10.48235 | 117.98299 | 33827 ft | 480 kts | 234° |
| 2026-05-05 05:53 | 10.44279 | 117.92843 | 33823 ft | 480 kts | 234° |
| 2026-05-05 05:54 | 10.40339 | 117.87414 | 33824 ft | 479 kts | 234° |
| 2026-05-05 05:54 | 10.36374 | 117.81956 | 33823 ft | 479 kts | 234° |
| 2026-05-05 05:55 | 10.32426 | 117.76488 | 33822 ft | 480 kts | 234° |
| 2026-05-05 05:55 | 10.28501 | 117.71004 | 33824 ft | 481 kts | 234° |
| 2026-05-05 05:56 | 10.24568 | 117.65510 | 33826 ft | 482 kts | 234° |
| 2026-05-05 05:56 | 10.20623 | 117.60007 | 33829 ft | 482 kts | 234° |
| 2026-05-05 05:57 | 10.16705 | 117.54542 | 33827 ft | 481 kts | 234° |
| 2026-05-05 05:57 | 10.12755 | 117.49036 | 33822 ft | 480 kts | 234° |
| 2026-05-05 05:58 | 10.08844 | 117.43589 | 33816 ft | 480 kts | 234° |
| 2026-05-05 05:58 | 10.04892 | 117.38088 | 33815 ft | 482 kts | 234° |
| 2026-05-05 05:59 | 10.00953 | 117.32605 | 33816 ft | 482 kts | 234° |
| 2026-05-05 05:59 | 9.97002 | 117.27108 | 33816 ft | 483 kts | 234° |
| 2026-05-05 06:00 | 9.93048 | 117.21610 | 33814 ft | 484 kts | 234° |
| 2026-05-05 06:00 | 9.89063 | 117.16074 | 33815 ft | 484 kts | 234° |
| 2026-05-05 06:01 | 9.85108 | 117.10578 | 33814 ft | 484 kts | 234° |
| 2026-05-05 06:01 | 9.81147 | 117.05078 | 33813 ft | 485 kts | 234° |
| 2026-05-05 06:02 | 9.77167 | 116.99554 | 33812 ft | 485 kts | 234° |
| 2026-05-05 06:02 | 9.73184 | 116.94029 | 33822 ft | 485 kts | 234° |
| 2026-05-05 06:03 | 9.69194 | 116.88496 | 33819 ft | 485 kts | 234° |
| 2026-05-05 06:03 | 9.65228 | 116.83003 | 33831 ft | 484 kts | 234° |
| 2026-05-05 06:04 | 9.61255 | 116.77498 | 33830 ft | 484 kts | 234° |
| 2026-05-05 06:04 | 9.57286 | 116.72000 | 33826 ft | 485 kts | 234° |
| 2026-05-05 06:05 | 9.53310 | 116.66498 | 33831 ft | 485 kts | 234° |
| 2026-05-05 06:05 | 9.49310 | 116.60964 | 33831 ft | 486 kts | 234° |
| 2026-05-05 06:06 | 9.45331 | 116.55462 | 33826 ft | 486 kts | 234° |
| 2026-05-05 06:06 | 9.41325 | 116.49922 | 33826 ft | 487 kts | 234° |
| 2026-05-05 06:07 | 9.37336 | 116.44411 | 33825 ft | 487 kts | 234° |
| 2026-05-05 06:07 | 9.33349 | 116.38901 | 33827 ft | 487 kts | 234° |
| 2026-05-05 06:08 | 9.29330 | 116.33353 | 33826 ft | 487 kts | 234° |
| 2026-05-05 06:08 | 9.25320 | 116.27835 | 33831 ft | 488 kts | 234° |
| 2026-05-05 06:09 | 9.21271 | 116.22303 | 33825 ft | 488 kts | 233° |
| 2026-05-05 06:09 | 9.17228 | 116.16775 | 33826 ft | 487 kts | 234° |
| 2026-05-05 06:10 | 9.13197 | 116.11262 | 33831 ft | 488 kts | 233° |
| 2026-05-05 06:10 | 9.09176 | 116.05765 | 33836 ft | 488 kts | 234° |
| 2026-05-05 06:11 | 9.05148 | 116.00259 | 33826 ft | 488 kts | 234° |
| 2026-05-05 06:11 | 9.01100 | 115.94725 | 33834 ft | 488 kts | 234° |
| 2026-05-05 06:12 | 8.97066 | 115.89215 | 33833 ft | 488 kts | 234° |
| 2026-05-05 06:12 | 8.93038 | 115.83720 | 33833 ft | 489 kts | 234° |
| 2026-05-05 06:13 | 8.88981 | 115.78190 | 33833 ft | 488 kts | 234° |
| 2026-05-05 06:13 | 8.84945 | 115.72687 | 33832 ft | 489 kts | 234° |
| 2026-05-05 06:14 | 8.80893 | 115.67162 | 33830 ft | 488 kts | 234° |
| 2026-05-05 06:14 | 8.76856 | 115.61661 | 33829 ft | 489 kts | 234° |
| 2026-05-05 06:15 | 8.72800 | 115.56134 | 33828 ft | 489 kts | 233° |
| 2026-05-05 06:15 | 8.68759 | 115.50632 | 33829 ft | 489 kts | 234° |
| 2026-05-05 06:16 | 8.64698 | 115.45101 | 33826 ft | 489 kts | 233° |
| 2026-05-05 06:16 | 8.60662 | 115.39611 | 33828 ft | 489 kts | 233° |
| 2026-05-05 06:17 | 8.56589 | 115.34070 | 33824 ft | 489 kts | 233° |
| 2026-05-05 06:17 | 8.52535 | 115.28557 | 33823 ft | 489 kts | 233° |
| 2026-05-05 06:18 | 8.48497 | 115.23070 | 33825 ft | 489 kts | 233° |
| 2026-05-05 06:18 | 8.44435 | 115.17551 | 33823 ft | 489 kts | 233° |
| 2026-05-05 06:19 | 8.40379 | 115.12044 | 33821 ft | 489 kts | 233° |
| 2026-05-05 06:19 | 8.36326 | 115.06541 | 33823 ft | 489 kts | 233° |
| 2026-05-05 06:20 | 8.32264 | 115.01030 | 33821 ft | 489 kts | 233° |
| 2026-05-05 06:20 | 8.28194 | 114.95507 | 33819 ft | 489 kts | 233° |
| 2026-05-05 06:21 | 8.24136 | 114.90006 | 33817 ft | 488 kts | 233° |
| 2026-05-05 06:21 | 8.20069 | 114.84495 | 33820 ft | 489 kts | 233° |
| 2026-05-05 06:22 | 8.16025 | 114.79015 | 33818 ft | 488 kts | 233° |
| 2026-05-05 06:22 | 8.11969 | 114.73522 | 33818 ft | 488 kts | 233° |
| 2026-05-05 06:23 | 8.07916 | 114.68036 | 33813 ft | 487 kts | 233° |
| 2026-05-05 06:23 | 8.03855 | 114.62540 | 33815 ft | 487 kts | 233° |
| 2026-05-05 06:24 | 7.99823 | 114.57085 | 33815 ft | 486 kts | 233° |
| 2026-05-05 06:24 | 7.95784 | 114.51624 | 33815 ft | 487 kts | 233° |
| 2026-05-05 06:25 | 7.91723 | 114.46134 | 33814 ft | 486 kts | 233° |
| 2026-05-05 06:25 | 7.87688 | 114.40683 | 33814 ft | 486 kts | 233° |
| 2026-05-05 06:26 | 7.83650 | 114.35226 | 33811 ft | 486 kts | 233° |
| 2026-05-05 06:26 | 7.79608 | 114.29771 | 33814 ft | 485 kts | 233° |
| 2026-05-05 06:27 | 7.73536 | 114.21576 | 33814 ft | 485 kts | 233° |
| 2026-05-05 06:28 | 7.69492 | 114.16120 | 33815 ft | 485 kts | 233° |
| 2026-05-05 06:28 | 7.65472 | 114.10699 | 33813 ft | 484 kts | 233° |
| 2026-05-05 06:29 | 7.61430 | 114.05250 | 33815 ft | 485 kts | 233° |
| 2026-05-05 06:29 | 7.57386 | 113.99800 | 33813 ft | 485 kts | 233° |
| 2026-05-05 06:30 | 7.53344 | 113.94356 | 33813 ft | 485 kts | 233° |
| 2026-05-05 06:30 | 7.49288 | 113.88893 | 33816 ft | 486 kts | 232° |
| 2026-05-05 06:31 | 7.45256 | 113.83464 | 33815 ft | 486 kts | 233° |
| 2026-05-05 06:31 | 7.41196 | 113.78002 | 33811 ft | 486 kts | 233° |
| 2026-05-05 06:32 | 7.37127 | 113.72529 | 33818 ft | 487 kts | 233° |
| 2026-05-05 06:32 | 7.33086 | 113.67095 | 33815 ft | 487 kts | 233° |
| 2026-05-05 06:33 | 7.29006 | 113.61610 | 33818 ft | 487 kts | 233° |
| 2026-05-05 06:33 | 7.24953 | 113.56163 | 33810 ft | 487 kts | 233° |
| 2026-05-05 06:34 | 7.20901 | 113.50719 | 33815 ft | 487 kts | 233° |
| 2026-05-05 06:34 | 7.16815 | 113.45232 | 33815 ft | 487 kts | 233° |
| 2026-05-05 06:35 | 7.12759 | 113.39786 | 33811 ft | 488 kts | 233° |
| 2026-05-05 06:35 | 7.08687 | 113.34321 | 33814 ft | 488 kts | 233° |
| 2026-05-05 06:36 | 7.04615 | 113.28858 | 33822 ft | 487 kts | 233° |
| 2026-05-05 06:36 | 7.00571 | 113.23434 | 33819 ft | 488 kts | 233° |
| 2026-05-05 06:37 | 6.96495 | 113.17969 | 33818 ft | 487 kts | 233° |
| 2026-05-05 06:37 | 6.92425 | 113.12514 | 33807 ft | 487 kts | 233° |
| 2026-05-05 06:38 | 6.88353 | 113.07058 | 33819 ft | 488 kts | 233° |
| 2026-05-05 06:38 | 6.84275 | 113.01596 | 33813 ft | 488 kts | 233° |
| 2026-05-05 06:39 | 6.80219 | 112.96164 | 33821 ft | 487 kts | 233° |
| 2026-05-05 06:39 | 6.76141 | 112.90704 | 33814 ft | 487 kts | 233° |
| 2026-05-05 06:40 | 6.72066 | 112.85250 | 33812 ft | 487 kts | 233° |
| 2026-05-05 06:40 | 6.67991 | 112.79798 | 33808 ft | 487 kts | 233° |
| 2026-05-05 06:41 | 6.63939 | 112.74379 | 33821 ft | 487 kts | 233° |
| 2026-05-05 06:41 | 6.59873 | 112.68939 | 33815 ft | 487 kts | 232° |
| 2026-05-05 06:42 | 6.55800 | 112.63494 | 33819 ft | 487 kts | 233° |
| 2026-05-05 06:42 | 6.51713 | 112.58033 | 33802 ft | 488 kts | 233° |
| 2026-05-05 06:43 | 6.47617 | 112.52573 | 33823 ft | 487 kts | 232° |
| 2026-05-05 06:43 | 6.43536 | 112.47126 | 33804 ft | 488 kts | 232° |
| 2026-05-05 06:44 | 6.39455 | 112.41682 | 33823 ft | 487 kts | 232° |
| 2026-05-05 06:44 | 6.35394 | 112.36268 | 33806 ft | 488 kts | 233° |
| 2026-05-05 06:45 | 6.31318 | 112.30830 | 33820 ft | 488 kts | 232° |
| 2026-05-05 06:45 | 6.27243 | 112.25395 | 33817 ft | 487 kts | 232° |
| 2026-05-05 06:46 | 6.23167 | 112.19964 | 33817 ft | 487 kts | 232° |
| 2026-05-05 06:46 | 6.19074 | 112.14509 | 33818 ft | 486 kts | 232° |
| 2026-05-05 06:47 | 6.14998 | 112.09079 | 33810 ft | 487 kts | 232° |
| 2026-05-05 06:47 | 6.10920 | 112.03650 | 33818 ft | 486 kts | 232° |
| 2026-05-05 06:48 | 6.06860 | 111.98243 | 33809 ft | 486 kts | 232° |
| 2026-05-05 06:48 | 6.02795 | 111.92833 | 33815 ft | 485 kts | 232° |
| 2026-05-05 06:49 | 5.98728 | 111.87419 | 33814 ft | 486 kts | 232° |
| 2026-05-05 06:49 | 5.94663 | 111.82014 | 33813 ft | 485 kts | 232° |
| 2026-05-05 06:50 | 5.90606 | 111.76619 | 33819 ft | 485 kts | 232° |
| 2026-05-05 06:50 | 5.86536 | 111.71206 | 33813 ft | 484 kts | 232° |
| 2026-05-05 06:51 | 5.82475 | 111.65808 | 33813 ft | 484 kts | 232° |
| 2026-05-05 06:51 | 5.78427 | 111.60428 | 33817 ft | 484 kts | 232° |
| 2026-05-05 06:52 | 5.74376 | 111.55047 | 33815 ft | 484 kts | 232° |
| 2026-05-05 06:52 | 5.70323 | 111.49664 | 33813 ft | 484 kts | 232° |
| 2026-05-05 06:53 | 5.66252 | 111.44260 | 33812 ft | 483 kts | 232° |
| 2026-05-05 06:53 | 5.62214 | 111.38899 | 33813 ft | 483 kts | 232° |
| 2026-05-05 06:54 | 5.58171 | 111.33532 | 33812 ft | 483 kts | 232° |
| 2026-05-05 06:54 | 5.54103 | 111.28136 | 33815 ft | 482 kts | 232° |
| 2026-05-05 06:55 | 5.50075 | 111.22792 | 33813 ft | 483 kts | 232° |
| 2026-05-05 06:55 | 5.46023 | 111.17420 | 33812 ft | 483 kts | 232° |
| 2026-05-05 06:56 | 5.41962 | 111.12035 | 33815 ft | 483 kts | 232° |
| 2026-05-05 06:56 | 5.37923 | 111.06683 | 33812 ft | 482 kts | 232° |
| 2026-05-05 06:57 | 5.33871 | 111.01314 | 33814 ft | 483 kts | 232° |
| 2026-05-05 06:57 | 5.29829 | 110.95959 | 33814 ft | 483 kts | 232° |
| 2026-05-05 06:58 | 5.25778 | 110.90591 | 33814 ft | 483 kts | 232° |
| 2026-05-05 06:58 | 5.21720 | 110.85220 | 33814 ft | 482 kts | 232° |
| 2026-05-05 06:59 | 5.17644 | 110.79822 | 33814 ft | 483 kts | 232° |
| 2026-05-05 06:59 | 5.13584 | 110.74449 | 33814 ft | 484 kts | 232° |
| 2026-05-05 07:00 | 5.09528 | 110.69085 | 33814 ft | 485 kts | 232° |
| 2026-05-05 07:00 | 5.05453 | 110.63693 | 33814 ft | 484 kts | 232° |
| 2026-05-05 07:01 | 5.01395 | 110.58327 | 33814 ft | 485 kts | 232° |
| 2026-05-05 07:01 | 4.97328 | 110.52948 | 33814 ft | 485 kts | 232° |
| 2026-05-05 07:02 | 4.93241 | 110.47546 | 33814 ft | 486 kts | 232° |
| 2026-05-05 07:02 | 4.89156 | 110.42147 | 33813 ft | 486 kts | 232° |
| 2026-05-05 07:03 | 4.85046 | 110.36716 | 33814 ft | 486 kts | 232° |
| 2026-05-05 07:03 | 4.80966 | 110.31326 | 33813 ft | 486 kts | 232° |
| 2026-05-05 07:04 | 4.76863 | 110.25906 | 33814 ft | 487 kts | 232° |
| 2026-05-05 07:04 | 4.72766 | 110.20497 | 33814 ft | 488 kts | 232° |
| 2026-05-05 07:05 | 4.68656 | 110.15071 | 33815 ft | 488 kts | 232° |
| 2026-05-05 07:05 | 4.64567 | 110.09673 | 33812 ft | 488 kts | 232° |
| 2026-05-05 07:06 | 4.60446 | 110.04237 | 33815 ft | 489 kts | 232° |
| 2026-05-05 07:06 | 4.56331 | 109.98806 | 33814 ft | 489 kts | 232° |
| 2026-05-05 07:07 | 4.52237 | 109.93404 | 33813 ft | 490 kts | 232° |
| 2026-05-05 07:07 | 4.48096 | 109.87945 | 33812 ft | 490 kts | 232° |
| 2026-05-05 07:08 | 4.43988 | 109.82526 | 33816 ft | 490 kts | 232° |
| 2026-05-05 07:08 | 4.39870 | 109.77098 | 33814 ft | 490 kts | 232° |
| 2026-05-05 07:09 | 4.35748 | 109.71663 | 33813 ft | 491 kts | 232° |
| 2026-05-05 07:09 | 4.31621 | 109.66222 | 33812 ft | 491 kts | 232° |
| 2026-05-05 07:10 | 4.27478 | 109.60761 | 33814 ft | 492 kts | 232° |
| 2026-05-05 07:10 | 4.23331 | 109.55301 | 33815 ft | 491 kts | 232° |
| 2026-05-05 07:11 | 4.19214 | 109.49888 | 33816 ft | 491 kts | 232° |
| 2026-05-05 07:11 | 4.15081 | 109.44452 | 33815 ft | 492 kts | 232° |
| 2026-05-05 07:12 | 4.10909 | 109.38962 | 33813 ft | 492 kts | 232° |
| 2026-05-05 07:12 | 4.06792 | 109.33544 | 33814 ft | 492 kts | 232° |
| 2026-05-05 07:13 | 4.02633 | 109.28072 | 33813 ft | 492 kts | 232° |
| 2026-05-05 07:13 | 3.98507 | 109.22644 | 33814 ft | 492 kts | 232° |
| 2026-05-05 07:14 | 3.94333 | 109.17155 | 33814 ft | 493 kts | 232° |
| 2026-05-05 07:14 | 3.90201 | 109.11722 | 33814 ft | 493 kts | 232° |
| 2026-05-05 07:15 | 3.86036 | 109.06243 | 33814 ft | 493 kts | 232° |
| 2026-05-05 07:15 | 3.81904 | 109.00811 | 33814 ft | 493 kts | 232° |
| 2026-05-05 07:16 | 3.77745 | 108.95343 | 33814 ft | 493 kts | 232° |
| 2026-05-05 07:16 | 3.73591 | 108.89880 | 33814 ft | 493 kts | 232° |
| 2026-05-05 07:17 | 3.69432 | 108.84416 | 33814 ft | 492 kts | 232° |
| 2026-05-05 07:17 | 3.65290 | 108.78960 | 33814 ft | 493 kts | 232° |
| 2026-05-05 07:18 | 3.61147 | 108.73501 | 33814 ft | 492 kts | 232° |
| 2026-05-05 07:18 | 3.57003 | 108.68040 | 33814 ft | 492 kts | 232° |
| 2026-05-05 07:19 | 3.52866 | 108.62587 | 33814 ft | 492 kts | 232° |
| 2026-05-05 07:19 | 3.48734 | 108.57143 | 33814 ft | 491 kts | 232° |
| 2026-05-05 07:20 | 3.44618 | 108.51720 | 33814 ft | 491 kts | 232° |
| 2026-05-05 07:20 | 3.40485 | 108.46277 | 33814 ft | 491 kts | 232° |
| 2026-05-05 07:21 | 3.36335 | 108.40810 | 33813 ft | 491 kts | 232° |
| 2026-05-05 07:21 | 3.32215 | 108.35385 | 33814 ft | 491 kts | 232° |
| 2026-05-05 07:22 | 3.28069 | 108.29926 | 33813 ft | 491 kts | 232° |
| 2026-05-05 07:22 | 3.23926 | 108.24472 | 33814 ft | 492 kts | 232° |
| 2026-05-05 07:23 | 3.19796 | 108.19036 | 33814 ft | 492 kts | 232° |
| 2026-05-05 07:23 | 3.15652 | 108.13582 | 33814 ft | 492 kts | 232° |
| 2026-05-05 07:24 | 3.11512 | 108.08134 | 33814 ft | 492 kts | 232° |
| 2026-05-05 07:24 | 3.07377 | 108.02695 | 33814 ft | 492 kts | 232° |
| 2026-05-05 07:25 | 3.03218 | 107.97223 | 33814 ft | 492 kts | 232° |
| 2026-05-05 07:25 | 2.99088 | 107.91791 | 33816 ft | 492 kts | 232° |
| 2026-05-05 07:26 | 2.94936 | 107.86330 | 33817 ft | 492 kts | 232° |
| 2026-05-05 07:26 | 2.90795 | 107.80885 | 33818 ft | 493 kts | 232° |
| 2026-05-05 07:27 | 2.86652 | 107.75439 | 33818 ft | 493 kts | 232° |
| 2026-05-05 07:27 | 2.82507 | 107.69989 | 33817 ft | 493 kts | 232° |
| 2026-05-05 07:28 | 2.78356 | 107.64534 | 33815 ft | 493 kts | 232° |
| 2026-05-05 07:28 | 2.74212 | 107.59087 | 33815 ft | 492 kts | 232° |
| 2026-05-05 07:29 | 2.70070 | 107.53644 | 33814 ft | 492 kts | 232° |
| 2026-05-05 07:29 | 2.65912 | 107.48180 | 33814 ft | 492 kts | 232° |
| 2026-05-05 07:30 | 2.61767 | 107.42735 | 33814 ft | 492 kts | 232° |
| 2026-05-05 07:30 | 2.55539 | 107.34553 | 33814 ft | 492 kts | 232° |
| 2026-05-05 07:31 | 2.51418 | 107.29139 | 33814 ft | 492 kts | 232° |
| 2026-05-05 07:31 | 2.47266 | 107.23686 | 33814 ft | 492 kts | 232° |
| 2026-05-05 07:32 | 2.43127 | 107.18248 | 33814 ft | 492 kts | 232° |
| 2026-05-05 07:32 | 2.38997 | 107.12821 | 33814 ft | 492 kts | 232° |
| 2026-05-05 07:33 | 2.35060 | 107.07661 | 33814 ft | 491 kts | 232° |